sensor_id;sensor_type;location;lat;lon;timestamp;P1;durP1;ratioP1;P2;durP2;ratioP2
33926;SDS011;20485;50.992;5.550;2023-03-07T00:00:35;21.25;;;11.10;;
33926;SDS011;20485;50.992;5.550;2023-03-07T00:03:01;21.45;;;11.27;;
33926;SDS011;20485;50.992;5.550;2023-03-07T00:05:27;22.60;;;10.23;;
33926;SDS011;20485;50.992;5.550;2023-03-07T00:07:52;19.70;;;10.63;;
33926;SDS011;20485;50.992;5.550;2023-03-07T00:10:18;17.90;;;9.77;;
33926;SDS011;20485;50.992;5.550;2023-03-07T00:12:44;21.38;;;10.35;;
33926;SDS011;20485;50.992;5.550;2023-03-07T00:15:10;21.90;;;9.50;;
33926;SDS011;20485;50.992;5.550;2023-03-07T00:17:36;19.85;;;10.55;;
33926;SDS011;20485;50.992;5.550;2023-03-07T00:20:02;19.13;;;9.35;;
33926;SDS011;20485;50.992;5.550;2023-03-07T00:22:33;15.20;;;9.32;;
33926;SDS011;20485;50.992;5.550;2023-03-07T00:24:59;18.92;;;10.23;;
33926;SDS011;20485;50.992;5.550;2023-03-07T00:27:25;21.45;;;9.30;;
33926;SDS011;20485;50.992;5.550;2023-03-07T00:29:51;14.45;;;8.25;;
33926;SDS011;20485;50.992;5.550;2023-03-07T00:32:16;14.00;;;7.75;;
33926;SDS011;20485;50.992;5.550;2023-03-07T00:34:42;16.77;;;9.20;;
33926;SDS011;20485;50.992;5.550;2023-03-07T00:37:08;16.17;;;8.52;;
33926;SDS011;20485;50.992;5.550;2023-03-07T00:39:33;12.98;;;8.07;;
33926;SDS011;20485;50.992;5.550;2023-03-07T00:41:59;17.17;;;8.63;;
33926;SDS011;20485;50.992;5.550;2023-03-07T00:44:25;16.10;;;8.27;;
33926;SDS011;20485;50.992;5.550;2023-03-07T00:46:53;16.60;;;8.65;;
33926;SDS011;20485;50.992;5.550;2023-03-07T00:49:20;13.75;;;7.75;;
33926;SDS011;20485;50.992;5.550;2023-03-07T00:51:46;13.38;;;7.85;;
33926;SDS011;20485;50.992;5.550;2023-03-07T00:54:11;14.05;;;7.70;;
33926;SDS011;20485;50.992;5.550;2023-03-07T00:56:37;11.13;;;6.95;;
33926;SDS011;20485;50.992;5.550;2023-03-07T00:59:03;10.50;;;6.85;;
33926;SDS011;20485;50.992;5.550;2023-03-07T01:01:28;13.82;;;7.70;;
33926;SDS011;20485;50.992;5.550;2023-03-07T01:03:54;13.65;;;8.18;;
33926;SDS011;20485;50.992;5.550;2023-03-07T01:06:24;16.67;;;8.30;;
33926;SDS011;20485;50.992;5.550;2023-03-07T01:08:51;13.52;;;7.60;;
33926;SDS011;20485;50.992;5.550;2023-03-07T01:11:18;12.90;;;7.43;;
33926;SDS011;20485;50.992;5.550;2023-03-07T01:13:43;15.85;;;8.00;;
33926;SDS011;20485;50.992;5.550;2023-03-07T01:16:11;13.52;;;7.80;;
33926;SDS011;20485;50.992;5.550;2023-03-07T01:18:39;16.10;;;8.65;;
33926;SDS011;20485;50.992;5.550;2023-03-07T01:21:13;14.55;;;8.18;;
33926;SDS011;20485;50.992;5.550;2023-03-07T01:23:44;14.93;;;7.72;;
33926;SDS011;20485;50.992;5.550;2023-03-07T01:26:11;17.50;;;9.10;;
33926;SDS011;20485;50.992;5.550;2023-03-07T01:28:44;15.05;;;8.60;;
33926;SDS011;20485;50.992;5.550;2023-03-07T01:31:10;16.73;;;8.98;;
33926;SDS011;20485;50.992;5.550;2023-03-07T01:33:36;14.75;;;8.95;;
33926;SDS011;20485;50.992;5.550;2023-03-07T01:36:02;15.65;;;9.10;;
33926;SDS011;20485;50.992;5.550;2023-03-07T01:38:29;21.13;;;10.57;;
33926;SDS011;20485;50.992;5.550;2023-03-07T01:40:59;20.80;;;9.70;;
33926;SDS011;20485;50.992;5.550;2023-03-07T01:43:30;19.77;;;11.10;;
33926;SDS011;20485;50.992;5.550;2023-03-07T01:46:41;23.58;;;10.57;;
33926;SDS011;20485;50.992;5.550;2023-03-07T01:49:11;22.02;;;10.60;;
33926;SDS011;20485;50.992;5.550;2023-03-07T01:54:12;22.90;;;12.10;;
33926;SDS011;20485;50.992;5.550;2023-03-07T01:56:41;28.13;;;12.85;;
33926;SDS011;20485;50.992;5.550;2023-03-07T01:59:08;25.30;;;13.10;;
33926;SDS011;20485;50.992;5.550;2023-03-07T02:01:33;26.48;;;13.30;;
33926;SDS011;20485;50.992;5.550;2023-03-07T02:04:22;27.13;;;13.70;;
33926;SDS011;20485;50.992;5.550;2023-03-07T02:06:55;29.95;;;13.63;;
33926;SDS011;20485;50.992;5.550;2023-03-07T02:09:20;22.90;;;13.02;;
33926;SDS011;20485;50.992;5.550;2023-03-07T02:11:48;32.83;;;13.55;;
33926;SDS011;20485;50.992;5.550;2023-03-07T02:14:14;25.85;;;13.40;;
33926;SDS011;20485;50.992;5.550;2023-03-07T02:16:40;24.52;;;12.68;;
33926;SDS011;20485;50.992;5.550;2023-03-07T02:19:10;30.15;;;13.80;;
33926;SDS011;20485;50.992;5.550;2023-03-07T02:24:32;23.58;;;12.73;;
33926;SDS011;20485;50.992;5.550;2023-03-07T02:27:07;25.58;;;13.25;;
33926;SDS011;20485;50.992;5.550;2023-03-07T02:29:33;26.95;;;13.18;;
33926;SDS011;20485;50.992;5.550;2023-03-07T02:31:59;29.10;;;13.35;;
33926;SDS011;20485;50.992;5.550;2023-03-07T02:34:29;25.73;;;13.02;;
33926;SDS011;20485;50.992;5.550;2023-03-07T02:36:57;33.33;;;14.23;;
33926;SDS011;20485;50.992;5.550;2023-03-07T02:39:26;24.67;;;12.05;;
33926;SDS011;20485;50.992;5.550;2023-03-07T02:41:54;30.98;;;14.25;;
33926;SDS011;20485;50.992;5.550;2023-03-07T02:44:22;26.65;;;11.80;;
33926;SDS011;20485;50.992;5.550;2023-03-07T02:46:48;29.75;;;12.77;;
33926;SDS011;20485;50.992;5.550;2023-03-07T02:49:14;28.67;;;14.13;;
33926;SDS011;20485;50.992;5.550;2023-03-07T02:51:40;25.95;;;13.30;;
33926;SDS011;20485;50.992;5.550;2023-03-07T02:54:06;25.77;;;14.30;;
33926;SDS011;20485;50.992;5.550;2023-03-07T02:56:32;24.52;;;14.63;;
33926;SDS011;20485;50.992;5.550;2023-03-07T02:58:58;26.58;;;13.35;;
33926;SDS011;20485;50.992;5.550;2023-03-07T03:01:24;29.23;;;14.10;;
33926;SDS011;20485;50.992;5.550;2023-03-07T03:03:50;30.88;;;14.00;;
33926;SDS011;20485;50.992;5.550;2023-03-07T03:06:15;30.95;;;14.25;;
33926;SDS011;20485;50.992;5.550;2023-03-07T03:08:41;28.20;;;14.32;;
33926;SDS011;20485;50.992;5.550;2023-03-07T03:11:07;31.25;;;14.82;;
33926;SDS011;20485;50.992;5.550;2023-03-07T03:13:32;29.52;;;14.25;;
33926;SDS011;20485;50.992;5.550;2023-03-07T03:15:58;26.13;;;14.10;;
33926;SDS011;20485;50.992;5.550;2023-03-07T03:18:27;30.63;;;15.32;;
33926;SDS011;20485;50.992;5.550;2023-03-07T03:20:54;27.90;;;13.60;;
33926;SDS011;20485;50.992;5.550;2023-03-07T03:23:19;26.33;;;14.57;;
33926;SDS011;20485;50.992;5.550;2023-03-07T03:25:45;24.98;;;13.88;;
33926;SDS011;20485;50.992;5.550;2023-03-07T03:28:21;31.42;;;13.68;;
33926;SDS011;20485;50.992;5.550;2023-03-07T03:30:55;26.90;;;14.35;;
33926;SDS011;20485;50.992;5.550;2023-03-07T03:33:25;26.33;;;14.73;;
33926;SDS011;20485;50.992;5.550;2023-03-07T03:35:53;26.60;;;14.05;;
33926;SDS011;20485;50.992;5.550;2023-03-07T03:38:23;25.75;;;13.80;;
33926;SDS011;20485;50.992;5.550;2023-03-07T03:40:49;29.83;;;14.48;;
33926;SDS011;20485;50.992;5.550;2023-03-07T03:43:15;28.30;;;14.20;;
33926;SDS011;20485;50.992;5.550;2023-03-07T03:45:41;24.17;;;13.23;;
33926;SDS011;20485;50.992;5.550;2023-03-07T03:48:07;29.65;;;13.95;;
33926;SDS011;20485;50.992;5.550;2023-03-07T03:50:33;25.40;;;14.07;;
33926;SDS011;20485;50.992;5.550;2023-03-07T03:52:59;33.90;;;13.73;;
33926;SDS011;20485;50.992;5.550;2023-03-07T03:55:25;29.33;;;14.68;;
33926;SDS011;20485;50.992;5.550;2023-03-07T03:57:51;33.35;;;13.80;;
33926;SDS011;20485;50.992;5.550;2023-03-07T04:00:17;27.92;;;13.93;;
33926;SDS011;20485;50.992;5.550;2023-03-07T04:02:44;26.70;;;14.80;;
33926;SDS011;20485;50.992;5.550;2023-03-07T04:05:10;31.73;;;13.88;;
33926;SDS011;20485;50.992;5.550;2023-03-07T04:07:36;32.63;;;14.15;;
33926;SDS011;20485;50.992;5.550;2023-03-07T04:10:02;27.40;;;14.18;;
33926;SDS011;20485;50.992;5.550;2023-03-07T04:12:29;27.73;;;14.05;;
33926;SDS011;20485;50.992;5.550;2023-03-07T04:14:55;29.98;;;15.00;;
33926;SDS011;20485;50.992;5.550;2023-03-07T04:17:20;29.15;;;14.00;;
33926;SDS011;20485;50.992;5.550;2023-03-07T04:19:46;24.52;;;14.27;;
33926;SDS011;20485;50.992;5.550;2023-03-07T04:22:12;28.92;;;13.40;;
33926;SDS011;20485;50.992;5.550;2023-03-07T04:24:37;30.23;;;14.32;;
33926;SDS011;20485;50.992;5.550;2023-03-07T04:27:03;28.23;;;13.95;;
33926;SDS011;20485;50.992;5.550;2023-03-07T04:29:29;29.73;;;13.18;;
33926;SDS011;20485;50.992;5.550;2023-03-07T04:31:55;29.63;;;14.65;;
33926;SDS011;20485;50.992;5.550;2023-03-07T04:34:21;28.08;;;14.45;;
33926;SDS011;20485;50.992;5.550;2023-03-07T04:36:46;29.92;;;14.25;;
33926;SDS011;20485;50.992;5.550;2023-03-07T04:39:12;29.65;;;14.32;;
33926;SDS011;20485;50.992;5.550;2023-03-07T04:41:37;27.50;;;14.00;;
33926;SDS011;20485;50.992;5.550;2023-03-07T04:44:06;25.77;;;13.43;;
33926;SDS011;20485;50.992;5.550;2023-03-07T04:46:31;32.80;;;14.88;;
33926;SDS011;20485;50.992;5.550;2023-03-07T04:48:57;33.42;;;15.40;;
33926;SDS011;20485;50.992;5.550;2023-03-07T04:51:23;33.50;;;14.20;;
33926;SDS011;20485;50.992;5.550;2023-03-07T04:53:48;26.77;;;14.25;;
33926;SDS011;20485;50.992;5.550;2023-03-07T04:56:14;29.13;;;14.48;;
33926;SDS011;20485;50.992;5.550;2023-03-07T04:58:40;30.60;;;14.48;;
33926;SDS011;20485;50.992;5.550;2023-03-07T05:01:07;34.65;;;14.07;;
33926;SDS011;20485;50.992;5.550;2023-03-07T05:03:33;28.48;;;14.48;;
33926;SDS011;20485;50.992;5.550;2023-03-07T05:06:00;27.85;;;15.07;;
33926;SDS011;20485;50.992;5.550;2023-03-07T05:08:33;28.30;;;13.93;;
33926;SDS011;20485;50.992;5.550;2023-03-07T05:10:59;29.08;;;14.20;;
33926;SDS011;20485;50.992;5.550;2023-03-07T05:13:26;37.20;;;14.65;;
33926;SDS011;20485;50.992;5.550;2023-03-07T05:15:52;30.83;;;14.60;;
33926;SDS011;20485;50.992;5.550;2023-03-07T05:18:19;26.65;;;13.40;;
33926;SDS011;20485;50.992;5.550;2023-03-07T05:20:45;29.10;;;14.60;;
33926;SDS011;20485;50.992;5.550;2023-03-07T05:23:11;27.15;;;12.48;;
33926;SDS011;20485;50.992;5.550;2023-03-07T05:25:36;35.83;;;14.77;;
33926;SDS011;20485;50.992;5.550;2023-03-07T05:28:02;30.48;;;14.45;;
33926;SDS011;20485;50.992;5.550;2023-03-07T05:30:28;30.88;;;14.57;;
33926;SDS011;20485;50.992;5.550;2023-03-07T05:32:53;32.80;;;14.98;;
33926;SDS011;20485;50.992;5.550;2023-03-07T05:35:19;37.90;;;16.08;;
33926;SDS011;20485;50.992;5.550;2023-03-07T05:37:48;35.10;;;16.13;;
33926;SDS011;20485;50.992;5.550;2023-03-07T05:40:14;32.00;;;14.45;;
33926;SDS011;20485;50.992;5.550;2023-03-07T05:42:41;32.58;;;14.93;;
33926;SDS011;20485;50.992;5.550;2023-03-07T05:45:07;28.70;;;14.27;;
33926;SDS011;20485;50.992;5.550;2023-03-07T05:47:34;34.85;;;14.50;;
33926;SDS011;20485;50.992;5.550;2023-03-07T05:49:59;29.45;;;14.98;;
33926;SDS011;20485;50.992;5.550;2023-03-07T05:52:26;32.65;;;15.60;;
33926;SDS011;20485;50.992;5.550;2023-03-07T05:54:52;29.45;;;13.70;;
33926;SDS011;20485;50.992;5.550;2023-03-07T05:57:18;31.90;;;14.30;;
33926;SDS011;20485;50.992;5.550;2023-03-07T05:59:44;29.75;;;14.75;;
33926;SDS011;20485;50.992;5.550;2023-03-07T06:02:10;28.85;;;13.85;;
33926;SDS011;20485;50.992;5.550;2023-03-07T06:04:36;31.98;;;14.63;;
33926;SDS011;20485;50.992;5.550;2023-03-07T06:07:01;29.25;;;14.55;;
33926;SDS011;20485;50.992;5.550;2023-03-07T06:09:27;28.08;;;14.35;;
33926;SDS011;20485;50.992;5.550;2023-03-07T06:11:53;30.00;;;13.95;;
33926;SDS011;20485;50.992;5.550;2023-03-07T06:14:18;32.80;;;14.85;;
33926;SDS011;20485;50.992;5.550;2023-03-07T06:16:44;28.23;;;13.90;;
33926;SDS011;20485;50.992;5.550;2023-03-07T06:19:10;35.95;;;14.30;;
33926;SDS011;20485;50.992;5.550;2023-03-07T06:21:36;25.80;;;13.73;;
33926;SDS011;20485;50.992;5.550;2023-03-07T06:24:02;32.92;;;14.95;;
33926;SDS011;20485;50.992;5.550;2023-03-07T06:26:28;33.90;;;14.40;;
33926;SDS011;20485;50.992;5.550;2023-03-07T06:28:54;27.38;;;13.60;;
33926;SDS011;20485;50.992;5.550;2023-03-07T06:31:19;28.92;;;12.30;;
33926;SDS011;20485;50.992;5.550;2023-03-07T06:33:45;31.15;;;13.80;;
33926;SDS011;20485;50.992;5.550;2023-03-07T06:36:12;25.10;;;13.55;;
33926;SDS011;20485;50.992;5.550;2023-03-07T06:38:41;28.58;;;14.85;;
33926;SDS011;20485;50.992;5.550;2023-03-07T06:41:07;32.53;;;15.68;;
33926;SDS011;20485;50.992;5.550;2023-03-07T06:43:33;35.03;;;13.95;;
33926;SDS011;20485;50.992;5.550;2023-03-07T06:45:59;29.98;;;14.90;;
33926;SDS011;20485;50.992;5.550;2023-03-07T06:48:24;24.88;;;13.07;;
33926;SDS011;20485;50.992;5.550;2023-03-07T06:50:50;28.40;;;14.35;;
33926;SDS011;20485;50.992;5.550;2023-03-07T06:53:16;27.35;;;12.82;;
33926;SDS011;20485;50.992;5.550;2023-03-07T06:55:42;35.35;;;13.90;;
33926;SDS011;20485;50.992;5.550;2023-03-07T06:58:11;23.13;;;11.45;;
33926;SDS011;20485;50.992;5.550;2023-03-07T07:00:37;26.38;;;13.23;;
33926;SDS011;20485;50.992;5.550;2023-03-07T07:03:06;27.05;;;13.40;;
33926;SDS011;20485;50.992;5.550;2023-03-07T07:05:32;26.67;;;13.45;;
33926;SDS011;20485;50.992;5.550;2023-03-07T07:07:57;24.90;;;13.43;;
33926;SDS011;20485;50.992;5.550;2023-03-07T07:10:23;22.25;;;12.63;;
33926;SDS011;20485;50.992;5.550;2023-03-07T07:12:48;25.45;;;13.85;;
33926;SDS011;20485;50.992;5.550;2023-03-07T07:15:18;23.50;;;12.85;;
33926;SDS011;20485;50.992;5.550;2023-03-07T07:17:44;24.73;;;11.68;;
33926;SDS011;20485;50.992;5.550;2023-03-07T07:20:09;20.23;;;12.02;;
33926;SDS011;20485;50.992;5.550;2023-03-07T07:22:36;25.85;;;13.50;;
33926;SDS011;20485;50.992;5.550;2023-03-07T07:25:01;21.02;;;11.65;;
33926;SDS011;20485;50.992;5.550;2023-03-07T07:27:30;22.00;;;11.38;;
33926;SDS011;20485;50.992;5.550;2023-03-07T07:29:55;25.98;;;11.75;;
33926;SDS011;20485;50.992;5.550;2023-03-07T07:32:21;26.23;;;12.30;;
33926;SDS011;20485;50.992;5.550;2023-03-07T07:34:47;26.35;;;12.15;;
33926;SDS011;20485;50.992;5.550;2023-03-07T07:37:12;21.02;;;12.15;;
33926;SDS011;20485;50.992;5.550;2023-03-07T07:39:38;28.17;;;12.05;;
33926;SDS011;20485;50.992;5.550;2023-03-07T07:42:08;20.00;;;11.07;;
33926;SDS011;20485;50.992;5.550;2023-03-07T07:44:34;24.17;;;12.15;;
33926;SDS011;20485;50.992;5.550;2023-03-07T07:47:00;23.30;;;11.65;;
33926;SDS011;20485;50.992;5.550;2023-03-07T07:49:26;22.13;;;12.00;;
33926;SDS011;20485;50.992;5.550;2023-03-07T07:51:51;23.27;;;12.43;;
33926;SDS011;20485;50.992;5.550;2023-03-07T07:54:17;20.42;;;10.55;;
33926;SDS011;20485;50.992;5.550;2023-03-07T07:56:43;23.38;;;11.85;;
33926;SDS011;20485;50.992;5.550;2023-03-07T07:59:08;21.60;;;11.55;;
33926;SDS011;20485;50.992;5.550;2023-03-07T08:01:34;23.70;;;12.00;;
33926;SDS011;20485;50.992;5.550;2023-03-07T08:04:00;23.05;;;11.18;;
33926;SDS011;20485;50.992;5.550;2023-03-07T08:06:26;21.30;;;11.63;;
33926;SDS011;20485;50.992;5.550;2023-03-07T08:08:53;22.40;;;11.15;;
33926;SDS011;20485;50.992;5.550;2023-03-07T08:11:20;20.20;;;11.90;;
33926;SDS011;20485;50.992;5.550;2023-03-07T08:13:47;24.45;;;12.90;;
33926;SDS011;20485;50.992;5.550;2023-03-07T08:16:14;27.50;;;11.93;;
33926;SDS011;20485;50.992;5.550;2023-03-07T08:18:41;23.52;;;12.80;;
33926;SDS011;20485;50.992;5.550;2023-03-07T08:21:12;25.27;;;12.57;;
33926;SDS011;20485;50.992;5.550;2023-03-07T08:23:39;25.83;;;12.68;;
33926;SDS011;20485;50.992;5.550;2023-03-07T08:26:05;23.77;;;13.43;;
33926;SDS011;20485;50.992;5.550;2023-03-07T08:28:32;26.38;;;13.57;;
33926;SDS011;20485;50.992;5.550;2023-03-07T08:31:04;26.52;;;14.48;;
33926;SDS011;20485;50.992;5.550;2023-03-07T08:33:38;27.45;;;14.27;;
33926;SDS011;20485;50.992;5.550;2023-03-07T08:36:04;29.98;;;14.55;;
33926;SDS011;20485;50.992;5.550;2023-03-07T08:38:30;27.98;;;13.50;;
33926;SDS011;20485;50.992;5.550;2023-03-07T08:41:00;24.20;;;12.88;;
33926;SDS011;20485;50.992;5.550;2023-03-07T08:43:28;28.35;;;14.23;;
33926;SDS011;20485;50.992;5.550;2023-03-07T08:45:55;28.75;;;13.80;;
33926;SDS011;20485;50.992;5.550;2023-03-07T08:48:21;25.05;;;13.73;;
33926;SDS011;20485;50.992;5.550;2023-03-07T08:50:47;26.02;;;13.60;;
33926;SDS011;20485;50.992;5.550;2023-03-07T08:53:13;23.38;;;12.73;;
33926;SDS011;20485;50.992;5.550;2023-03-07T08:55:39;33.35;;;13.52;;
33926;SDS011;20485;50.992;5.550;2023-03-07T08:58:05;27.05;;;12.98;;
33926;SDS011;20485;50.992;5.550;2023-03-07T09:00:31;27.67;;;13.48;;
33926;SDS011;20485;50.992;5.550;2023-03-07T09:02:57;24.23;;;13.18;;
33926;SDS011;20485;50.992;5.550;2023-03-07T09:05:25;31.80;;;13.38;;
33926;SDS011;20485;50.992;5.550;2023-03-07T09:07:51;22.67;;;11.80;;
33926;SDS011;20485;50.992;5.550;2023-03-07T09:10:17;23.67;;;11.73;;
33926;SDS011;20485;50.992;5.550;2023-03-07T09:12:44;24.77;;;11.38;;
33926;SDS011;20485;50.992;5.550;2023-03-07T09:15:11;28.27;;;11.57;;
33926;SDS011;20485;50.992;5.550;2023-03-07T09:17:36;22.88;;;11.38;;
33926;SDS011;20485;50.992;5.550;2023-03-07T09:20:03;24.83;;;13.10;;
33926;SDS011;20485;50.992;5.550;2023-03-07T09:22:30;22.30;;;11.85;;
33926;SDS011;20485;50.992;5.550;2023-03-07T09:24:56;19.48;;;11.43;;
33926;SDS011;20485;50.992;5.550;2023-03-07T09:27:21;21.25;;;11.88;;
33926;SDS011;20485;50.992;5.550;2023-03-07T09:29:47;20.90;;;11.13;;
33926;SDS011;20485;50.992;5.550;2023-03-07T09:32:13;19.48;;;11.00;;
33926;SDS011;20485;50.992;5.550;2023-03-07T09:34:39;19.77;;;11.02;;
33926;SDS011;20485;50.992;5.550;2023-03-07T09:37:04;17.60;;;10.25;;
33926;SDS011;20485;50.992;5.550;2023-03-07T09:39:30;21.42;;;10.07;;
33926;SDS011;20485;50.992;5.550;2023-03-07T09:44:53;19.83;;;10.35;;
33926;SDS011;20485;50.992;5.550;2023-03-07T09:50:34;22.45;;;11.07;;
33926;SDS011;20485;50.992;5.550;2023-03-07T09:56:04;18.70;;;9.45;;
33926;SDS011;20485;50.992;5.550;2023-03-07T09:58:35;19.67;;;8.85;;
33926;SDS011;20485;50.992;5.550;2023-03-07T10:01:04;19.20;;;9.50;;
33926;SDS011;20485;50.992;5.550;2023-03-07T10:06:15;18.38;;;10.43;;
33926;SDS011;20485;50.992;5.550;2023-03-07T10:08:50;17.17;;;10.45;;
33926;SDS011;20485;50.992;5.550;2023-03-07T10:23:26;23.95;;;10.05;;
33926;SDS011;20485;50.992;5.550;2023-03-07T10:28:51;18.45;;;10.32;;
33926;SDS011;20485;50.992;5.550;2023-03-07T10:31:33;19.77;;;9.82;;
33926;SDS011;20485;50.992;5.550;2023-03-07T10:34:21;22.52;;;10.45;;
33926;SDS011;20485;50.992;5.550;2023-03-07T10:37:03;20.83;;;9.55;;
33926;SDS011;20485;50.992;5.550;2023-03-07T10:42:22;18.67;;;9.13;;
33926;SDS011;20485;50.992;5.550;2023-03-07T10:44:51;14.30;;;8.00;;
33926;SDS011;20485;50.992;5.550;2023-03-07T10:49:45;14.43;;;8.05;;
33926;SDS011;20485;50.992;5.550;2023-03-07T10:52:25;15.48;;;9.50;;
33926;SDS011;20485;50.992;5.550;2023-03-07T10:55:28;14.80;;;8.20;;
33926;SDS011;20485;50.992;5.550;2023-03-07T10:58:12;16.02;;;8.70;;
33926;SDS011;20485;50.992;5.550;2023-03-07T11:00:57;19.13;;;9.10;;
33926;SDS011;20485;50.992;5.550;2023-03-07T11:03:39;16.77;;;9.55;;
33926;SDS011;20485;50.992;5.550;2023-03-07T11:06:06;17.48;;;9.30;;
33926;SDS011;20485;50.992;5.550;2023-03-07T11:08:48;16.05;;;8.30;;
33926;SDS011;20485;50.992;5.550;2023-03-07T11:11:21;15.85;;;8.07;;
33926;SDS011;20485;50.992;5.550;2023-03-07T11:14:07;12.70;;;7.50;;
33926;SDS011;20485;50.992;5.550;2023-03-07T11:16:41;15.20;;;8.48;;
33926;SDS011;20485;50.992;5.550;2023-03-07T11:19:29;14.45;;;8.32;;
33926;SDS011;20485;50.992;5.550;2023-03-07T11:21:59;15.63;;;7.93;;
33926;SDS011;20485;50.992;5.550;2023-03-07T11:24:37;11.77;;;6.88;;
33926;SDS011;20485;50.992;5.550;2023-03-07T11:27:04;13.07;;;8.15;;
33926;SDS011;20485;50.992;5.550;2023-03-07T11:29:30;16.88;;;8.30;;
33926;SDS011;20485;50.992;5.550;2023-03-07T11:34:44;13.30;;;7.78;;
33926;SDS011;20485;50.992;5.550;2023-03-07T11:37:25;15.02;;;8.07;;
33926;SDS011;20485;50.992;5.550;2023-03-07T11:42:37;9.52;;;6.50;;
33926;SDS011;20485;50.992;5.550;2023-03-07T11:45:25;10.00;;;5.88;;
33926;SDS011;20485;50.992;5.550;2023-03-07T11:50:42;8.30;;;4.82;;
33926;SDS011;20485;50.992;5.550;2023-03-07T11:53:23;7.28;;;4.13;;
33926;SDS011;20485;50.992;5.550;2023-03-07T11:55:56;6.97;;;3.88;;
33926;SDS011;20485;50.992;5.550;2023-03-07T12:33:53;5.70;;;2.92;;
33926;SDS011;20485;50.992;5.550;2023-03-07T12:39:00;2.67;;;1.98;;
33926;SDS011;20485;50.992;5.550;2023-03-07T12:44:31;8.93;;;6.28;;
33926;SDS011;20485;50.992;5.550;2023-03-07T12:47:12;9.05;;;6.40;;
33926;SDS011;20485;50.992;5.550;2023-03-07T12:55:34;10.57;;;7.10;;
33926;SDS011;20485;50.992;5.550;2023-03-07T12:58:16;11.60;;;7.13;;
33926;SDS011;20485;50.992;5.550;2023-03-07T13:00:58;10.73;;;6.68;;
33926;SDS011;20485;50.992;5.550;2023-03-07T13:04:14;9.27;;;6.30;;
33926;SDS011;20485;50.992;5.550;2023-03-07T13:06:36;9.93;;;6.43;;
33926;SDS011;20485;50.992;5.550;2023-03-07T13:09:05;9.10;;;6.63;;
33926;SDS011;20485;50.992;5.550;2023-03-07T13:11:37;9.63;;;6.30;;
33926;SDS011;20485;50.992;5.550;2023-03-07T13:27:59;9.98;;;6.68;;
33926;SDS011;20485;50.992;5.550;2023-03-07T13:55:45;14.00;;;7.05;;
33926;SDS011;20485;50.992;5.550;2023-03-07T14:01:05;11.68;;;6.47;;
33926;SDS011;20485;50.992;5.550;2023-03-07T14:03:43;11.85;;;8.02;;
33926;SDS011;20485;50.992;5.550;2023-03-07T14:06:32;10.65;;;7.05;;
33926;SDS011;20485;50.992;5.550;2023-03-07T14:09:03;9.75;;;7.18;;
33926;SDS011;20485;50.992;5.550;2023-03-07T14:14:38;12.38;;;8.30;;
33926;SDS011;20485;50.992;5.550;2023-03-07T14:19:59;15.65;;;9.27;;
33926;SDS011;20485;50.992;5.550;2023-03-07T14:25:23;14.63;;;8.90;;
33926;SDS011;20485;50.992;5.550;2023-03-07T14:30:26;13.57;;;8.55;;
33926;SDS011;20485;50.992;5.550;2023-03-07T14:32:54;13.75;;;8.40;;
33926;SDS011;20485;50.992;5.550;2023-03-07T14:38:18;13.40;;;8.95;;
33926;SDS011;20485;50.992;5.550;2023-03-07T14:49:03;11.27;;;7.43;;
33926;SDS011;20485;50.992;5.550;2023-03-07T14:51:30;13.43;;;8.13;;
33926;SDS011;20485;50.992;5.550;2023-03-07T14:54:03;12.73;;;8.07;;
33926;SDS011;20485;50.992;5.550;2023-03-07T14:56:32;11.68;;;7.53;;
33926;SDS011;20485;50.992;5.550;2023-03-07T14:58:59;13.98;;;8.20;;
33926;SDS011;20485;50.992;5.550;2023-03-07T15:01:31;11.02;;;7.75;;
33926;SDS011;20485;50.992;5.550;2023-03-07T15:03:59;12.20;;;8.18;;
33926;SDS011;20485;50.992;5.550;2023-03-07T15:06:27;12.32;;;8.43;;
33926;SDS011;20485;50.992;5.550;2023-03-07T15:08:54;12.40;;;7.82;;
33926;SDS011;20485;50.992;5.550;2023-03-07T15:14:05;14.77;;;7.05;;
33926;SDS011;20485;50.992;5.550;2023-03-07T15:16:38;11.75;;;7.03;;
33926;SDS011;20485;50.992;5.550;2023-03-07T15:21:59;15.45;;;7.10;;
33926;SDS011;20485;50.992;5.550;2023-03-07T15:24:38;9.10;;;6.07;;
33926;SDS011;20485;50.992;5.550;2023-03-07T15:27:10;9.60;;;6.93;;
33926;SDS011;20485;50.992;5.550;2023-03-07T15:29:43;8.57;;;6.45;;
33926;SDS011;20485;50.992;5.550;2023-03-07T15:32:24;9.35;;;6.82;;
33926;SDS011;20485;50.992;5.550;2023-03-07T15:37:54;10.27;;;6.75;;
33926;SDS011;20485;50.992;5.550;2023-03-07T15:40:23;8.40;;;6.70;;
33926;SDS011;20485;50.992;5.550;2023-03-07T15:43:34;11.73;;;6.60;;
33926;SDS011;20485;50.992;5.550;2023-03-07T15:46:01;10.07;;;6.60;;
33926;SDS011;20485;50.992;5.550;2023-03-07T15:48:33;9.90;;;6.88;;
33926;SDS011;20485;50.992;5.550;2023-03-07T15:51:00;13.98;;;6.85;;
33926;SDS011;20485;50.992;5.550;2023-03-07T15:53:37;10.98;;;7.63;;
33926;SDS011;20485;50.992;5.550;2023-03-07T15:56:05;12.43;;;7.70;;
33926;SDS011;20485;50.992;5.550;2023-03-07T15:58:45;11.55;;;7.50;;
33926;SDS011;20485;50.992;5.550;2023-03-07T16:01:21;10.77;;;6.95;;
33926;SDS011;20485;50.992;5.550;2023-03-07T16:03:50;10.95;;;8.32;;
33926;SDS011;20485;50.992;5.550;2023-03-07T16:09:15;14.25;;;8.68;;
33926;SDS011;20485;50.992;5.550;2023-03-07T16:11:42;14.82;;;9.90;;
33926;SDS011;20485;50.992;5.550;2023-03-07T16:14:30;15.95;;;10.15;;
33926;SDS011;20485;50.992;5.550;2023-03-07T16:16:57;18.77;;;10.50;;
33926;SDS011;20485;50.992;5.550;2023-03-07T16:19:24;15.88;;;10.00;;
33926;SDS011;20485;50.992;5.550;2023-03-07T16:21:50;18.90;;;11.27;;
33926;SDS011;20485;50.992;5.550;2023-03-07T16:24:16;19.88;;;10.70;;
33926;SDS011;20485;50.992;5.550;2023-03-07T16:26:42;17.85;;;11.52;;
33926;SDS011;20485;50.992;5.550;2023-03-07T16:29:18;16.98;;;11.50;;
33926;SDS011;20485;50.992;5.550;2023-03-07T16:31:46;20.63;;;12.10;;
33926;SDS011;20485;50.992;5.550;2023-03-07T16:34:21;17.20;;;11.18;;
33926;SDS011;20485;50.992;5.550;2023-03-07T16:36:47;19.65;;;10.70;;
33926;SDS011;20485;50.992;5.550;2023-03-07T16:39:13;17.50;;;10.95;;
33926;SDS011;20485;50.992;5.550;2023-03-07T16:41:43;15.70;;;8.82;;
33926;SDS011;20485;50.992;5.550;2023-03-07T16:44:15;17.35;;;11.43;;
33926;SDS011;20485;50.992;5.550;2023-03-07T16:46:42;19.02;;;11.90;;
33926;SDS011;20485;50.992;5.550;2023-03-07T16:49:14;21.05;;;12.50;;
33926;SDS011;20485;50.992;5.550;2023-03-07T16:51:42;21.05;;;13.23;;
33926;SDS011;20485;50.992;5.550;2023-03-07T16:54:08;18.42;;;11.70;;
33926;SDS011;20485;50.992;5.550;2023-03-07T16:56:35;20.17;;;12.75;;
33926;SDS011;20485;50.992;5.550;2023-03-07T16:59:05;18.35;;;12.18;;
33926;SDS011;20485;50.992;5.550;2023-03-07T17:01:32;20.13;;;12.00;;
33926;SDS011;20485;50.992;5.550;2023-03-07T17:03:58;19.95;;;12.73;;
33926;SDS011;20485;50.992;5.550;2023-03-07T17:06:23;20.95;;;12.73;;
33926;SDS011;20485;50.992;5.550;2023-03-07T17:08:49;20.85;;;12.10;;
33926;SDS011;20485;50.992;5.550;2023-03-07T17:11:18;18.45;;;11.50;;
33926;SDS011;20485;50.992;5.550;2023-03-07T17:13:49;20.42;;;12.02;;
33926;SDS011;20485;50.992;5.550;2023-03-07T17:16:18;16.20;;;10.93;;
33926;SDS011;20485;50.992;5.550;2023-03-07T17:18:45;19.77;;;11.32;;
33926;SDS011;20485;50.992;5.550;2023-03-07T17:21:14;20.75;;;12.73;;
33926;SDS011;20485;50.992;5.550;2023-03-07T17:23:42;28.73;;;15.25;;